sensor_id;sensor_type;location;lat;lon;timestamp;P1;durP1;ratioP1;P2;durP2;ratioP2
21012;SDS011;10664;53.582;9.712;2022-09-09T00:01:12;29.05;;;20.80;;
21012;SDS011;10664;53.582;9.712;2022-09-09T00:03:48;29.80;;;20.63;;
21012;SDS011;10664;53.582;9.712;2022-09-09T00:06:30;28.70;;;21.17;;
21012;SDS011;10664;53.582;9.712;2022-09-09T00:09:12;31.70;;;21.90;;
21012;SDS011;10664;53.582;9.712;2022-09-09T00:11:43;32.50;;;21.13;;
21012;SDS011;10664;53.582;9.712;2022-09-09T00:14:17;33.83;;;22.15;;
21012;SDS011;10664;53.582;9.712;2022-09-09T00:16:46;32.03;;;22.02;;
21012;SDS011;10664;53.582;9.712;2022-09-09T00:19:32;37.88;;;23.88;;
21012;SDS011;10664;53.582;9.712;2022-09-09T00:22:08;35.47;;;22.67;;
21012;SDS011;10664;53.582;9.712;2022-09-09T00:24:51;35.65;;;22.75;;
21012;SDS011;10664;53.582;9.712;2022-09-09T00:27:29;35.90;;;23.17;;
21012;SDS011;10664;53.582;9.712;2022-09-09T00:32:29;34.67;;;22.52;;
21012;SDS011;10664;53.582;9.712;2022-09-09T00:34:57;33.60;;;22.67;;
21012;SDS011;10664;53.582;9.712;2022-09-09T00:37:24;33.50;;;21.52;;
21012;SDS011;10664;53.582;9.712;2022-09-09T00:39:51;34.20;;;21.80;;
21012;SDS011;10664;53.582;9.712;2022-09-09T00:44:56;35.17;;;21.95;;
21012;SDS011;10664;53.582;9.712;2022-09-09T00:47:29;37.35;;;22.33;;
21012;SDS011;10664;53.582;9.712;2022-09-09T00:50:01;35.10;;;22.45;;
21012;SDS011;10664;53.582;9.712;2022-09-09T00:57:51;31.50;;;21.45;;
21012;SDS011;10664;53.582;9.712;2022-09-09T01:00:24;31.67;;;21.20;;
21012;SDS011;10664;53.582;9.712;2022-09-09T01:02:53;34.75;;;21.65;;
21012;SDS011;10664;53.582;9.712;2022-09-09T01:08:11;31.90;;;21.05;;
21012;SDS011;10664;53.582;9.712;2022-09-09T01:10:41;34.65;;;21.88;;
21012;SDS011;10664;53.582;9.712;2022-09-09T01:13:27;32.42;;;21.20;;
21012;SDS011;10664;53.582;9.712;2022-09-09T01:15:55;35.85;;;22.20;;
21012;SDS011;10664;53.582;9.712;2022-09-09T01:18:23;33.35;;;21.38;;
21012;SDS011;10664;53.582;9.712;2022-09-09T01:26:08;32.85;;;21.85;;
21012;SDS011;10664;53.582;9.712;2022-09-09T01:28:35;33.30;;;21.35;;
21012;SDS011;10664;53.582;9.712;2022-09-09T01:31:05;30.73;;;20.42;;
21012;SDS011;10664;53.582;9.712;2022-09-09T01:33:32;33.25;;;21.67;;
21012;SDS011;10664;53.582;9.712;2022-09-09T01:38:33;31.60;;;20.00;;
21012;SDS011;10664;53.582;9.712;2022-09-09T01:41:00;31.90;;;20.88;;
21012;SDS011;10664;53.582;9.712;2022-09-09T01:43:26;29.25;;;19.90;;
21012;SDS011;10664;53.582;9.712;2022-09-09T01:45:53;28.98;;;19.83;;
21012;SDS011;10664;53.582;9.712;2022-09-09T01:48:20;29.80;;;19.38;;
21012;SDS011;10664;53.582;9.712;2022-09-09T01:50:47;27.05;;;18.65;;
21012;SDS011;10664;53.582;9.712;2022-09-09T01:53:13;26.85;;;18.67;;
21012;SDS011;10664;53.582;9.712;2022-09-09T01:55:41;26.05;;;17.90;;
21012;SDS011;10664;53.582;9.712;2022-09-09T02:01:02;26.77;;;17.98;;
21012;SDS011;10664;53.582;9.712;2022-09-09T02:03:29;26.13;;;17.75;;
21012;SDS011;10664;53.582;9.712;2022-09-09T02:06:05;24.98;;;17.92;;
21012;SDS011;10664;53.582;9.712;2022-09-09T02:08:40;25.92;;;17.98;;
21012;SDS011;10664;53.582;9.712;2022-09-09T02:11:18;26.60;;;18.15;;
21012;SDS011;10664;53.582;9.712;2022-09-09T02:13:45;25.08;;;17.55;;
21012;SDS011;10664;53.582;9.712;2022-09-09T02:16:24;31.52;;;17.95;;
21012;SDS011;10664;53.582;9.712;2022-09-09T02:18:54;25.77;;;17.92;;
21012;SDS011;10664;53.582;9.712;2022-09-09T02:21:21;22.92;;;17.10;;
21012;SDS011;10664;53.582;9.712;2022-09-09T02:23:48;24.10;;;17.98;;
21012;SDS011;10664;53.582;9.712;2022-09-09T02:26:17;26.52;;;18.42;;
21012;SDS011;10664;53.582;9.712;2022-09-09T02:28:46;23.20;;;17.00;;
21012;SDS011;10664;53.582;9.712;2022-09-09T02:31:14;23.50;;;17.80;;
21012;SDS011;10664;53.582;9.712;2022-09-09T02:33:43;23.63;;;17.30;;
21012;SDS011;10664;53.582;9.712;2022-09-09T02:36:10;21.25;;;16.45;;
21012;SDS011;10664;53.582;9.712;2022-09-09T02:38:38;25.23;;;17.45;;
21012;SDS011;10664;53.582;9.712;2022-09-09T02:41:06;24.67;;;17.70;;
21012;SDS011;10664;53.582;9.712;2022-09-09T02:43:33;21.45;;;16.42;;
21012;SDS011;10664;53.582;9.712;2022-09-09T02:48:49;22.85;;;17.30;;
21012;SDS011;10664;53.582;9.712;2022-09-09T02:53:43;23.77;;;17.48;;
21012;SDS011;10664;53.582;9.712;2022-09-09T02:56:18;23.98;;;18.15;;
21012;SDS011;10664;53.582;9.712;2022-09-09T02:58:45;24.30;;;17.42;;
21012;SDS011;10664;53.582;9.712;2022-09-09T03:01:12;24.88;;;18.00;;
21012;SDS011;10664;53.582;9.712;2022-09-09T03:03:39;24.48;;;17.90;;
21012;SDS011;10664;53.582;9.712;2022-09-09T03:06:06;24.55;;;18.30;;
21012;SDS011;10664;53.582;9.712;2022-09-09T03:08:32;25.25;;;18.40;;
21012;SDS011;10664;53.582;9.712;2022-09-09T03:10:58;22.83;;;17.20;;
21012;SDS011;10664;53.582;9.712;2022-09-09T03:13:27;23.33;;;17.92;;
21012;SDS011;10664;53.582;9.712;2022-09-09T03:15:53;21.58;;;17.05;;
21012;SDS011;10664;53.582;9.712;2022-09-09T03:18:19;23.58;;;17.60;;
21012;SDS011;10664;53.582;9.712;2022-09-09T03:20:46;22.42;;;16.90;;
21012;SDS011;10664;53.582;9.712;2022-09-09T03:23:16;21.15;;;16.42;;
21012;SDS011;10664;53.582;9.712;2022-09-09T03:25:48;21.63;;;17.45;;
21012;SDS011;10664;53.582;9.712;2022-09-09T03:28:16;22.42;;;17.15;;
21012;SDS011;10664;53.582;9.712;2022-09-09T03:30:42;22.52;;;17.38;;
21012;SDS011;10664;53.582;9.712;2022-09-09T03:33:08;20.75;;;16.13;;
21012;SDS011;10664;53.582;9.712;2022-09-09T03:35:34;22.23;;;16.95;;
21012;SDS011;10664;53.582;9.712;2022-09-09T03:38:01;21.33;;;16.60;;
21012;SDS011;10664;53.582;9.712;2022-09-09T03:40:27;21.45;;;16.27;;
21012;SDS011;10664;53.582;9.712;2022-09-09T03:42:53;20.40;;;16.20;;
21012;SDS011;10664;53.582;9.712;2022-09-09T03:45:19;19.85;;;16.52;;
21012;SDS011;10664;53.582;9.712;2022-09-09T03:47:44;21.95;;;16.77;;
21012;SDS011;10664;53.582;9.712;2022-09-09T03:50:11;21.48;;;16.15;;
21012;SDS011;10664;53.582;9.712;2022-09-09T03:52:37;22.83;;;17.27;;
21012;SDS011;10664;53.582;9.712;2022-09-09T03:55:04;19.20;;;15.70;;
21012;SDS011;10664;53.582;9.712;2022-09-09T03:57:31;21.55;;;16.20;;
21012;SDS011;10664;53.582;9.712;2022-09-09T03:59:59;19.65;;;16.00;;
21012;SDS011;10664;53.582;9.712;2022-09-09T04:02:26;21.63;;;17.05;;
21012;SDS011;10664;53.582;9.712;2022-09-09T04:04:51;18.73;;;15.25;;
21012;SDS011;10664;53.582;9.712;2022-09-09T04:07:17;19.70;;;15.30;;
21012;SDS011;10664;53.582;9.712;2022-09-09T04:09:43;19.17;;;15.73;;
21012;SDS011;10664;53.582;9.712;2022-09-09T04:12:09;22.45;;;16.92;;
21012;SDS011;10664;53.582;9.712;2022-09-09T04:14:38;20.15;;;16.38;;
21012;SDS011;10664;53.582;9.712;2022-09-09T04:17:04;19.20;;;15.57;;
21012;SDS011;10664;53.582;9.712;2022-09-09T04:19:31;19.02;;;15.15;;
21012;SDS011;10664;53.582;9.712;2022-09-09T04:21:57;18.63;;;15.48;;
21012;SDS011;10664;53.582;9.712;2022-09-09T04:24:23;19.17;;;16.25;;
21012;SDS011;10664;53.582;9.712;2022-09-09T04:26:52;21.48;;;15.85;;
21012;SDS011;10664;53.582;9.712;2022-09-09T04:29:18;19.58;;;16.05;;
21012;SDS011;10664;53.582;9.712;2022-09-09T04:31:44;19.27;;;16.23;;
21012;SDS011;10664;53.582;9.712;2022-09-09T04:34:10;18.92;;;15.45;;
21012;SDS011;10664;53.582;9.712;2022-09-09T04:36:36;17.50;;;15.30;;
21012;SDS011;10664;53.582;9.712;2022-09-09T04:39:05;19.38;;;15.30;;
21012;SDS011;10664;53.582;9.712;2022-09-09T04:41:31;19.30;;;16.15;;
21012;SDS011;10664;53.582;9.712;2022-09-09T04:43:57;17.77;;;15.65;;
21012;SDS011;10664;53.582;9.712;2022-09-09T04:46:25;17.83;;;14.95;;
21012;SDS011;10664;53.582;9.712;2022-09-09T04:48:51;19.27;;;14.85;;
21012;SDS011;10664;53.582;9.712;2022-09-09T04:51:17;18.45;;;15.45;;
21012;SDS011;10664;53.582;9.712;2022-09-09T04:53:44;17.63;;;14.63;;
21012;SDS011;10664;53.582;9.712;2022-09-09T04:56:13;17.77;;;14.85;;
21012;SDS011;10664;53.582;9.712;2022-09-09T04:58:39;16.60;;;14.80;;
21012;SDS011;10664;53.582;9.712;2022-09-09T05:01:12;18.25;;;14.55;;
21012;SDS011;10664;53.582;9.712;2022-09-09T05:03:38;17.73;;;14.05;;
21012;SDS011;10664;53.582;9.712;2022-09-09T05:06:05;17.10;;;14.07;;
21012;SDS011;10664;53.582;9.712;2022-09-09T05:08:31;15.18;;;13.10;;
21012;SDS011;10664;53.582;9.712;2022-09-09T05:10:57;15.32;;;13.68;;
21012;SDS011;10664;53.582;9.712;2022-09-09T05:13:24;14.25;;;12.75;;
21012;SDS011;10664;53.582;9.712;2022-09-09T05:15:51;14.90;;;12.50;;
21012;SDS011;10664;53.582;9.712;2022-09-09T05:18:18;13.43;;;12.02;;
21012;SDS011;10664;53.582;9.712;2022-09-09T05:20:44;14.20;;;12.35;;
21012;SDS011;10664;53.582;9.712;2022-09-09T05:23:09;14.68;;;12.50;;
21012;SDS011;10664;53.582;9.712;2022-09-09T05:25:38;14.77;;;12.82;;
21012;SDS011;10664;53.582;9.712;2022-09-09T05:28:06;13.05;;;11.68;;
21012;SDS011;10664;53.582;9.712;2022-09-09T05:30:32;13.73;;;12.15;;
21012;SDS011;10664;53.582;9.712;2022-09-09T05:32:58;12.98;;;11.60;;
21012;SDS011;10664;53.582;9.712;2022-09-09T05:35:24;12.30;;;11.00;;
21012;SDS011;10664;53.582;9.712;2022-09-09T05:37:50;12.55;;;11.25;;
21012;SDS011;10664;53.582;9.712;2022-09-09T05:40:16;11.77;;;10.57;;
21012;SDS011;10664;53.582;9.712;2022-09-09T05:42:43;12.02;;;10.77;;
21012;SDS011;10664;53.582;9.712;2022-09-09T05:45:09;12.43;;;10.98;;
21012;SDS011;10664;53.582;9.712;2022-09-09T05:47:35;12.00;;;10.70;;
21012;SDS011;10664;53.582;9.712;2022-09-09T05:50:02;11.15;;;10.05;;
21012;SDS011;10664;53.582;9.712;2022-09-09T05:52:29;11.15;;;10.05;;
21012;SDS011;10664;53.582;9.712;2022-09-09T05:54:55;11.15;;;10.05;;
21012;SDS011;10664;53.582;9.712;2022-09-09T05:57:22;11.45;;;10.25;;
21012;SDS011;10664;53.582;9.712;2022-09-09T05:59:47;11.13;;;10.02;;
21012;SDS011;10664;53.582;9.712;2022-09-09T06:02:14;10.57;;;9.52;;
21012;SDS011;10664;53.582;9.712;2022-09-09T06:04:40;10.40;;;9.40;;
21012;SDS011;10664;53.582;9.712;2022-09-09T06:07:06;10.70;;;9.60;;
21012;SDS011;10664;53.582;9.712;2022-09-09T06:09:32;10.68;;;9.68;;
21012;SDS011;10664;53.582;9.712;2022-09-09T06:11:58;10.27;;;9.27;;
21012;SDS011;10664;53.582;9.712;2022-09-09T06:14:24;9.80;;;8.88;;
21012;SDS011;10664;53.582;9.712;2022-09-09T06:16:51;10.52;;;9.52;;
21012;SDS011;10664;53.582;9.712;2022-09-09T06:19:17;9.65;;;8.75;;
21012;SDS011;10664;53.582;9.712;2022-09-09T06:21:45;9.93;;;8.93;;
21012;SDS011;10664;53.582;9.712;2022-09-09T06:24:12;9.18;;;8.27;;
21012;SDS011;10664;53.582;9.712;2022-09-09T06:26:42;9.10;;;8.30;;
21012;SDS011;10664;53.582;9.712;2022-09-09T06:29:08;9.52;;;8.63;;
21012;SDS011;10664;53.582;9.712;2022-09-09T06:31:35;9.50;;;8.60;;
21012;SDS011;10664;53.582;9.712;2022-09-09T06:34:02;9.10;;;8.20;;
21012;SDS011;10664;53.582;9.712;2022-09-09T06:36:30;9.30;;;8.40;;
21012;SDS011;10664;53.582;9.712;2022-09-09T06:38:57;8.55;;;7.72;;
21012;SDS011;10664;53.582;9.712;2022-09-09T06:41:24;8.55;;;7.75;;
21012;SDS011;10664;53.582;9.712;2022-09-09T06:43:54;8.73;;;7.88;;
21012;SDS011;10664;53.582;9.712;2022-09-09T06:46:24;7.88;;;7.18;;
21012;SDS011;10664;53.582;9.712;2022-09-09T06:48:54;8.80;;;7.72;;
21012;SDS011;10664;53.582;9.712;2022-09-09T06:51:21;8.25;;;7.45;;
21012;SDS011;10664;53.582;9.712;2022-09-09T06:53:51;8.20;;;7.30;;
21012;SDS011;10664;53.582;9.712;2022-09-09T06:56:22;8.10;;;7.30;;
21012;SDS011;10664;53.582;9.712;2022-09-09T06:58:49;8.25;;;7.28;;
21012;SDS011;10664;53.582;9.712;2022-09-09T07:01:16;8.02;;;7.22;;
21012;SDS011;10664;53.582;9.712;2022-09-09T07:03:42;8.07;;;7.28;;
21012;SDS011;10664;53.582;9.712;2022-09-09T07:06:18;7.93;;;7.20;;
21012;SDS011;10664;53.582;9.712;2022-09-09T07:08:48;7.53;;;6.88;;
21012;SDS011;10664;53.582;9.712;2022-09-09T07:11:15;7.65;;;6.95;;
21012;SDS011;10664;53.582;9.712;2022-09-09T07:13:40;7.60;;;6.78;;
21012;SDS011;10664;53.582;9.712;2022-09-09T07:16:08;7.50;;;6.80;;
21012;SDS011;10664;53.582;9.712;2022-09-09T07:18:34;7.63;;;6.90;;
21012;SDS011;10664;53.582;9.712;2022-09-09T07:21:01;7.78;;;6.90;;
21012;SDS011;10664;53.582;9.712;2022-09-09T07:23:27;7.85;;;6.93;;
21012;SDS011;10664;53.582;9.712;2022-09-09T07:25:53;6.90;;;6.30;;
21012;SDS011;10664;53.582;9.712;2022-09-09T07:28:20;7.20;;;6.60;;
21012;SDS011;10664;53.582;9.712;2022-09-09T07:30:53;7.32;;;6.68;;
21012;SDS011;10664;53.582;9.712;2022-09-09T07:33:19;7.55;;;6.85;;
21012;SDS011;10664;53.582;9.712;2022-09-09T07:35:45;7.10;;;6.50;;
21012;SDS011;10664;53.582;9.712;2022-09-09T07:38:11;7.05;;;6.35;;
21012;SDS011;10664;53.582;9.712;2022-09-09T07:40:37;7.25;;;6.57;;
21012;SDS011;10664;53.582;9.712;2022-09-09T07:43:04;6.93;;;6.32;;
21012;SDS011;10664;53.582;9.712;2022-09-09T07:45:30;6.63;;;6.05;;
21012;SDS011;10664;53.582;9.712;2022-09-09T07:47:57;7.18;;;6.57;;
21012;SDS011;10664;53.582;9.712;2022-09-09T07:50:23;7.07;;;6.47;;
21012;SDS011;10664;53.582;9.712;2022-09-09T07:52:53;7.10;;;6.50;;
21012;SDS011;10664;53.582;9.712;2022-09-09T07:55:19;6.72;;;6.13;;
21012;SDS011;10664;53.582;9.712;2022-09-09T07:57:46;6.72;;;6.10;;
21012;SDS011;10664;53.582;9.712;2022-09-09T08:00:12;6.85;;;6.10;;
21012;SDS011;10664;53.582;9.712;2022-09-09T08:02:39;6.60;;;6.10;;
21012;SDS011;10664;53.582;9.712;2022-09-09T08:05:05;6.57;;;5.97;;
21012;SDS011;10664;53.582;9.712;2022-09-09T08:07:31;6.60;;;6.05;;
21012;SDS011;10664;53.582;9.712;2022-09-09T08:09:57;7.03;;;6.38;;
21012;SDS011;10664;53.582;9.712;2022-09-09T08:12:23;7.07;;;6.47;;
21012;SDS011;10664;53.582;9.712;2022-09-09T08:14:49;6.68;;;6.07;;
21012;SDS011;10664;53.582;9.712;2022-09-09T08:17:16;7.10;;;6.47;;
21012;SDS011;10664;53.582;9.712;2022-09-09T08:19:42;6.57;;;5.97;;
21012;SDS011;10664;53.582;9.712;2022-09-09T08:22:09;6.90;;;6.30;;
21012;SDS011;10664;53.582;9.712;2022-09-09T08:24:35;6.43;;;5.82;;
21012;SDS011;10664;53.582;9.712;2022-09-09T08:27:01;6.68;;;5.70;;
21012;SDS011;10664;53.582;9.712;2022-09-09T08:29:27;6.65;;;6.05;;
21012;SDS011;10664;53.582;9.712;2022-09-09T08:31:54;6.45;;;5.88;;
21012;SDS011;10664;53.582;9.712;2022-09-09T08:34:22;6.47;;;5.75;;
21012;SDS011;10664;53.582;9.712;2022-09-09T08:36:48;7.25;;;6.63;;
21012;SDS011;10664;53.582;9.712;2022-09-09T08:39:16;7.30;;;6.60;;
21012;SDS011;10664;53.582;9.712;2022-09-09T08:49:44;6.65;;;6.07;;
21012;SDS011;10664;53.582;9.712;2022-09-09T08:52:16;6.32;;;5.72;;
21012;SDS011;10664;53.582;9.712;2022-09-09T08:54:43;6.50;;;5.90;;
21012;SDS011;10664;53.582;9.712;2022-09-09T08:57:14;6.32;;;5.75;;
21012;SDS011;10664;53.582;9.712;2022-09-09T08:59:44;6.53;;;5.93;;
21012;SDS011;10664;53.582;9.712;2022-09-09T09:02:18;6.30;;;5.78;;
21012;SDS011;10664;53.582;9.712;2022-09-09T09:04:55;6.60;;;5.90;;
21012;SDS011;10664;53.582;9.712;2022-09-09T09:07:31;6.10;;;5.60;;
21012;SDS011;10664;53.582;9.712;2022-09-09T09:10:04;6.45;;;5.95;;
21012;SDS011;10664;53.582;9.712;2022-09-09T09:12:38;6.30;;;5.70;;
21012;SDS011;10664;53.582;9.712;2022-09-09T09:15:28;6.05;;;5.55;;
21012;SDS011;10664;53.582;9.712;2022-09-09T09:17:52;5.88;;;5.35;;
21012;SDS011;10664;53.582;9.712;2022-09-09T09:20:20;6.32;;;5.72;;
21012;SDS011;10664;53.582;9.712;2022-09-09T09:22:48;6.00;;;5.50;;
21012;SDS011;10664;53.582;9.712;2022-09-09T09:25:17;5.70;;;5.20;;
21012;SDS011;10664;53.582;9.712;2022-09-09T09:32:38;5.18;;;4.78;;
21012;SDS011;10664;53.582;9.712;2022-09-09T09:35:09;4.90;;;4.43;;
21012;SDS011;10664;53.582;9.712;2022-09-09T09:37:37;5.28;;;4.85;;
21012;SDS011;10664;53.582;9.712;2022-09-09T09:40:36;4.75;;;4.35;;
21012;SDS011;10664;53.582;9.712;2022-09-09T09:42:59;4.72;;;4.32;;
21012;SDS011;10664;53.582;9.712;2022-09-09T09:45:35;4.60;;;4.20;;
21012;SDS011;10664;53.582;9.712;2022-09-09T09:48:08;4.63;;;4.22;;
21012;SDS011;10664;53.582;9.712;2022-09-09T09:50:35;4.20;;;3.90;;
21012;SDS011;10664;53.582;9.712;2022-09-09T09:53:28;5.05;;;4.55;;
21012;SDS011;10664;53.582;9.712;2022-09-09T09:55:59;4.88;;;4.22;;
21012;SDS011;10664;53.582;9.712;2022-09-09T09:58:26;4.03;;;3.63;;
21012;SDS011;10664;53.582;9.712;2022-09-09T10:00:54;3.90;;;3.60;;
21012;SDS011;10664;53.582;9.712;2022-09-09T10:03:25;4.38;;;3.35;;
21012;SDS011;10664;53.582;9.712;2022-09-09T10:05:52;3.67;;;3.35;;
21012;SDS011;10664;53.582;9.712;2022-09-09T10:08:18;3.78;;;3.15;;
21012;SDS011;10664;53.582;9.712;2022-09-09T10:11:02;3.00;;;2.80;;
21012;SDS011;10664;53.582;9.712;2022-09-09T10:13:49;3.22;;;2.67;;
21012;SDS011;10664;53.582;9.712;2022-09-09T10:18:58;2.90;;;2.40;;
21012;SDS011;10664;53.582;9.712;2022-09-09T10:21:48;2.50;;;2.30;;
21012;SDS011;10664;53.582;9.712;2022-09-09T10:24:26;2.70;;;2.50;;
21012;SDS011;10664;53.582;9.712;2022-09-09T10:27:00;2.08;;;1.95;;
21012;SDS011;10664;53.582;9.712;2022-09-09T10:32:23;2.60;;;2.40;;
21012;SDS011;10664;53.582;9.712;2022-09-09T10:37:26;2.60;;;2.40;;
21012;SDS011;10664;53.582;9.712;2022-09-09T10:39:59;2.55;;;2.35;;
21012;SDS011;10664;53.582;9.712;2022-09-09T10:42:30;2.92;;;2.17;;
21012;SDS011;10664;53.582;9.712;2022-09-09T10:45:02;3.00;;;2.40;;
21012;SDS011;10664;53.582;9.712;2022-09-09T10:50:27;2.47;;;2.28;;
21012;SDS011;10664;53.582;9.712;2022-09-09T10:52:58;2.25;;;2.05;;
21012;SDS011;10664;53.582;9.712;2022-09-09T10:55:27;2.63;;;2.40;;
21012;SDS011;10664;53.582;9.712;2022-09-09T10:57:58;2.30;;;2.20;;
21012;SDS011;10664;53.582;9.712;2022-09-09T11:00:36;2.70;;;2.50;;
21012;SDS011;10664;53.582;9.712;2022-09-09T11:03:04;2.83;;;2.60;;
21012;SDS011;10664;53.582;9.712;2022-09-09T11:05:49;2.67;;;2.53;;
21012;SDS011;10664;53.582;9.712;2022-09-09T11:08:19;2.75;;;2.55;;
21012;SDS011;10664;53.582;9.712;2022-09-09T11:13:19;4.00;;;3.03;;
21012;SDS011;10664;53.582;9.712;2022-09-09T11:15:49;3.38;;;3.08;;
21012;SDS011;10664;53.582;9.712;2022-09-09T11:18:21;3.17;;;2.97;;
21012;SDS011;10664;53.582;9.712;2022-09-09T11:20:48;3.30;;;3.10;;
21012;SDS011;10664;53.582;9.712;2022-09-09T11:23:17;3.70;;;3.50;;
21012;SDS011;10664;53.582;9.712;2022-09-09T11:25:53;4.00;;;3.70;;
21012;SDS011;10664;53.582;9.712;2022-09-09T11:28:31;3.22;;;3.03;;
21012;SDS011;10664;53.582;9.712;2022-09-09T11:31:03;3.20;;;2.90;;
21012;SDS011;10664;53.582;9.712;2022-09-09T11:33:55;3.63;;;3.35;;
21012;SDS011;10664;53.582;9.712;2022-09-09T11:38:50;3.83;;;3.53;;
21012;SDS011;10664;53.582;9.712;2022-09-09T11:41:17;3.50;;;3.30;;
21012;SDS011;10664;53.582;9.712;2022-09-09T11:43:44;3.45;;;3.25;;
21012;SDS011;10664;53.582;9.712;2022-09-09T11:46:11;3.83;;;3.55;;
21012;SDS011;10664;53.582;9.712;2022-09-09T11:48:41;3.78;;;3.47;;
21012;SDS011;10664;53.582;9.712;2022-09-09T11:53:50;3.67;;;3.38;;
21012;SDS011;10664;53.582;9.712;2022-09-09T11:58:53;4.15;;;3.70;;
21012;SDS011;10664;53.582;9.712;2022-09-09T12:01:27;4.03;;;3.72;;
21012;SDS011;10664;53.582;9.712;2022-09-09T12:06:29;4.50;;;4.20;;
21012;SDS011;10664;53.582;9.712;2022-09-09T12:09:09;4.90;;;4.60;;
21012;SDS011;10664;53.582;9.712;2022-09-09T12:11:36;4.80;;;4.50;;
21012;SDS011;10664;53.582;9.712;2022-09-09T12:14:02;4.80;;;4.40;;
21012;SDS011;10664;53.582;9.712;2022-09-09T12:16:35;4.60;;;4.30;;
21012;SDS011;10664;53.582;9.712;2022-09-09T12:19:04;4.72;;;4.25;;
21012;SDS011;10664;53.582;9.712;2022-09-09T12:23:58;4.55;;;4.25;;
21012;SDS011;10664;53.582;9.712;2022-09-09T12:32:00;4.03;;;3.72;;
21012;SDS011;10664;53.582;9.712;2022-09-09T12:40:05;3.58;;;3.38;;
21012;SDS011;10664;53.582;9.712;2022-09-09T12:42:31;4.05;;;3.75;;
21012;SDS011;10664;53.582;9.712;2022-09-09T12:45:01;3.70;;;3.50;;
21012;SDS011;10664;53.582;9.712;2022-09-09T12:49:57;3.50;;;3.30;;
21012;SDS011;10664;53.582;9.712;2022-09-09T12:52:32;3.55;;;3.25;;
21012;SDS011;10664;53.582;9.712;2022-09-09T12:55:02;3.45;;;3.15;;
21012;SDS011;10664;53.582;9.712;2022-09-09T12:57:31;3.08;;;2.88;;
21012;SDS011;10664;53.582;9.712;2022-09-09T13:02:46;3.00;;;2.80;;
21012;SDS011;10664;53.582;9.712;2022-09-09T13:05:17;3.47;;;3.22;;
21012;SDS011;10664;53.582;9.712;2022-09-09T13:07:44;3.15;;;2.95;;
21012;SDS011;10664;53.582;9.712;2022-09-09T13:10:10;3.47;;;3.20;;
21012;SDS011;10664;53.582;9.712;2022-09-09T13:12:37;3.55;;;3.25;;
21012;SDS011;10664;53.582;9.712;2022-09-09T13:15:03;3.28;;;3.08;;
21012;SDS011;10664;53.582;9.712;2022-09-09T13:17:30;3.70;;;3.40;;
21012;SDS011;10664;53.582;9.712;2022-09-09T13:19:56;3.47;;;3.28;;
21012;SDS011;10664;53.582;9.712;2022-09-09T13:22:35;3.65;;;3.42;;
21012;SDS011;10664;53.582;9.712;2022-09-09T13:27:59;3.47;;;3.28;;
21012;SDS011;10664;53.582;9.712;2022-09-09T13:35:27;3.75;;;3.45;;
21012;SDS011;10664;53.582;9.712;2022-09-09T13:37:54;3.50;;;3.30;;
21012;SDS011;10664;53.582;9.712;2022-09-09T13:40:20;3.88;;;3.65;;
21012;SDS011;10664;53.582;9.712;2022-09-09T13:42:47;3.85;;;3.63;;
21012;SDS011;10664;53.582;9.712;2022-09-09T13:45:20;3.72;;;3.53;;
21012;SDS011;10664;53.582;9.712;2022-09-09T13:47:47;3.90;;;3.60;;
21012;SDS011;10664;53.582;9.712;2022-09-09T13:50:20;3.85;;;3.60;;
21012;SDS011;10664;53.582;9.712;2022-09-09T13:52:50;3.70;;;3.50;;
21012;SDS011;10664;53.582;9.712;2022-09-09T13:55:16;4.53;;;4.15;;
21012;SDS011;10664;53.582;9.712;2022-09-09T13:58:01;4.32;;;3.92;;
21012;SDS011;10664;53.582;9.712;2022-09-09T14:00:31;3.92;;;3.63;;
21012;SDS011;10664;53.582;9.712;2022-09-09T14:02:57;3.65;;;3.42;;
21012;SDS011;10664;53.582;9.712;2022-09-09T14:05:26;3.50;;;3.30;;
21012;SDS011;10664;53.582;9.712;2022-09-09T14:07:52;4.90;;;3.22;;
21012;SDS011;10664;53.582;9.712;2022-09-09T14:10:18;3.38;;;3.17;;
21012;SDS011;10664;53.582;9.712;2022-09-09T14:12:44;3.70;;;3.40;;
21012;SDS011;10664;53.582;9.712;2022-09-09T14:15:11;3.70;;;3.50;;
21012;SDS011;10664;53.582;9.712;2022-09-09T14:17:37;3.85;;;3.55;;
21012;SDS011;10664;53.582;9.712;2022-09-09T14:20:04;3.53;;;3.33;;
21012;SDS011;10664;53.582;9.712;2022-09-09T14:22:33;3.55;;;3.35;;
21012;SDS011;10664;53.582;9.712;2022-09-09T14:24:59;3.58;;;3.28;;
21012;SDS011;10664;53.582;9.712;2022-09-09T14:27:25;3.30;;;3.10;;
21012;SDS011;10664;53.582;9.712;2022-09-09T14:29:51;4.03;;;3.72;;
21012;SDS011;10664;53.582;9.712;2022-09-09T14:32:17;3.53;;;3.33;;
21012;SDS011;10664;53.582;9.712;2022-09-09T14:34:44;3.50;;;3.30;;
21012;SDS011;10664;53.582;9.712;2022-09-09T14:37:10;3.08;;;2.88;;
21012;SDS011;10664;53.582;9.712;2022-09-09T14:39:36;3.50;;;3.30;;
21012;SDS011;10664;53.582;9.712;2022-09-09T14:42:02;3.22;;;3.00;;
21012;SDS011;10664;53.582;9.712;2022-09-09T14:44:28;3.17;;;2.97;;
21012;SDS011;10664;53.582;9.712;2022-09-09T14:46:54;3.10;;;2.80;;
21012;SDS011;10664;53.582;9.712;2022-09-09T14:49:20;3.70;;;3.40;;
21012;SDS011;10664;53.582;9.712;2022-09-09T14:51:46;3.33;;;3.10;;
21012;SDS011;10664;53.582;9.712;2022-09-09T14:54:13;3.50;;;3.30;;
21012;SDS011;10664;53.582;9.712;2022-09-09T14:56:39;3.10;;;2.88;;
21012;SDS011;10664;53.582;9.712;2022-09-09T14:59:05;3.28;;;3.08;;
21012;SDS011;10664;53.582;9.712;2022-09-09T15:01:31;3.40;;;3.20;;
21012;SDS011;10664;53.582;9.712;2022-09-09T15:03:59;3.20;;;3.00;;
21012;SDS011;10664;53.582;9.712;2022-09-09T15:06:28;3.30;;;3.10;;
21012;SDS011;10664;53.582;9.712;2022-09-09T15:08:55;3.08;;;2.88;;
21012;SDS011;10664;53.582;9.712;2022-09-09T15:11:25;3.20;;;2.95;;
21012;SDS011;10664;53.582;9.712;2022-09-09T15:13:52;3.30;;;3.10;;
21012;SDS011;10664;53.582;9.712;2022-09-09T15:16:19;3.40;;;3.20;;
21012;SDS011;10664;53.582;9.712;2022-09-09T15:18:45;2.97;;;2.78;;
21012;SDS011;10664;53.582;9.712;2022-09-09T15:21:13;3.25;;;3.00;;
21012;SDS011;10664;53.582;9.712;2022-09-09T15:23:40;3.05;;;2.85;;
21012;SDS011;10664;53.582;9.712;2022-09-09T15:26:06;3.38;;;3.08;;
21012;SDS011;10664;53.582;9.712;2022-09-09T15:28:33;3.10;;;2.90;;
21012;SDS011;10664;53.582;9.712;2022-09-09T15:31:06;3.17;;;2.92;;
21012;SDS011;10664;53.582;9.712;2022-09-09T15:33:33;3.55;;;3.25;;
21012;SDS011;10664;53.582;9.712;2022-09-09T15:36:01;3.47;;;3.20;;
21012;SDS011;10664;53.582;9.712;2022-09-09T15:38:37;3.40;;;3.17;;
21012;SDS011;10664;53.582;9.712;2022-09-09T15:41:03;3.63;;;3.33;;
21012;SDS011;10664;53.582;9.712;2022-09-09T15:43:29;3.20;;;3.00;;
21012;SDS011;10664;53.582;9.712;2022-09-09T15:45:56;3.53;;;3.22;;
21012;SDS011;10664;53.582;9.712;2022-09-09T15:48:29;3.67;;;3.33;;
21012;SDS011;10664;53.582;9.712;2022-09-09T15:51:06;3.40;;;3.20;;
21012;SDS011;10664;53.582;9.712;2022-09-09T15:53:34;3.13;;;2.92;;
21012;SDS011;10664;53.582;9.712;2022-09-09T15:56:00;3.08;;;2.88;;
21012;SDS011;10664;53.582;9.712;2022-09-09T15:58:29;3.20;;;3.00;;
21012;SDS011;10664;53.582;9.712;2022-09-09T16:01:01;3.17;;;2.97;;
21012;SDS011;10664;53.582;9.712;2022-09-09T16:03:27;3.10;;;2.90;;
21012;SDS011;10664;53.582;9.712;2022-09-09T16:05:54;3.30;;;3.10;;
21012;SDS011;10664;53.582;9.712;2022-09-09T16:08:20;2.95;;;2.75;;
21012;SDS011;10664;53.582;9.712;2022-09-09T16:10:46;3.05;;;2.85;;
21012;SDS011;10664;53.582;9.712;2022-09-09T16:13:13;2.80;;;2.60;;
21012;SDS011;10664;53.582;9.712;2022-09-09T16:15:39;3.10;;;2.90;;
21012;SDS011;10664;53.582;9.712;2022-09-09T16:18:05;3.05;;;2.78;;
21012;SDS011;10664;53.582;9.712;2022-09-09T16:20:31;2.90;;;2.70;;